sensor_id;sensor_type;location;lat;lon;timestamp;P1;durP1;ratioP1;P2;durP2;ratioP2
76801;SDS011;66403;50.832;10.950;2023-04-25T00:02:47;3.30;;;2.50;;
76801;SDS011;66403;50.832;10.950;2023-04-25T00:07:47;3.72;;;2.75;;
76801;SDS011;66403;50.832;10.950;2023-04-25T00:12:48;4.55;;;2.45;;
76801;SDS011;66403;50.832;10.950;2023-04-25T00:17:48;8.38;;;3.72;;
76801;SDS011;66403;50.832;10.950;2023-04-25T00:22:49;5.65;;;2.65;;
76801;SDS011;66403;50.832;10.950;2023-04-25T00:27:49;6.47;;;2.88;;
76801;SDS011;66403;50.832;10.950;2023-04-25T00:32:50;4.22;;;2.88;;
76801;SDS011;66403;50.832;10.950;2023-04-25T00:37:50;3.58;;;2.25;;
76801;SDS011;66403;50.832;10.950;2023-04-25T00:42:51;4.70;;;2.85;;
76801;SDS011;66403;50.832;10.950;2023-04-25T00:47:52;4.85;;;3.28;;
76801;SDS011;66403;50.832;10.950;2023-04-25T00:52:53;3.55;;;2.33;;
76801;SDS011;66403;50.832;10.950;2023-04-25T00:57:53;5.90;;;3.47;;
76801;SDS011;66403;50.832;10.950;2023-04-25T01:02:54;6.25;;;3.17;;
76801;SDS011;66403;50.832;10.950;2023-04-25T01:07:54;7.88;;;3.15;;
76801;SDS011;66403;50.832;10.950;2023-04-25T01:12:55;6.53;;;2.42;;
76801;SDS011;66403;50.832;10.950;2023-04-25T01:17:56;5.45;;;2.92;;
76801;SDS011;66403;50.832;10.950;2023-04-25T01:22:58;4.95;;;2.55;;
76801;SDS011;66403;50.832;10.950;2023-04-25T01:27:58;4.13;;;2.70;;
76801;SDS011;66403;50.832;10.950;2023-04-25T01:32:59;2.78;;;2.35;;
76801;SDS011;66403;50.832;10.950;2023-04-25T01:38:02;3.97;;;2.70;;
76801;SDS011;66403;50.832;10.950;2023-04-25T01:43:03;3.85;;;3.10;;
76801;SDS011;66403;50.832;10.950;2023-04-25T01:48:03;7.97;;;3.15;;
76801;SDS011;66403;50.832;10.950;2023-04-25T01:53:04;3.20;;;2.70;;
76801;SDS011;66403;50.832;10.950;2023-04-25T01:58:05;4.40;;;3.03;;
76801;SDS011;66403;50.832;10.950;2023-04-25T02:03:27;3.75;;;2.33;;
76801;SDS011;66403;50.832;10.950;2023-04-25T02:08:30;4.43;;;2.22;;
76801;SDS011;66403;50.832;10.950;2023-04-25T02:13:31;4.13;;;3.08;;
76801;SDS011;66403;50.832;10.950;2023-04-25T02:18:52;3.17;;;2.55;;
76801;SDS011;66403;50.832;10.950;2023-04-25T02:23:53;7.97;;;2.90;;
76801;SDS011;66403;50.832;10.950;2023-04-25T02:28:54;5.00;;;4.10;;
76801;SDS011;66403;50.832;10.950;2023-04-25T02:33:54;5.05;;;2.42;;
76801;SDS011;66403;50.832;10.950;2023-04-25T02:38:55;6.38;;;2.97;;
76801;SDS011;66403;50.832;10.950;2023-04-25T02:43:55;4.95;;;3.00;;
76801;SDS011;66403;50.832;10.950;2023-04-25T02:48:56;5.53;;;2.97;;
76801;SDS011;66403;50.832;10.950;2023-04-25T02:53:56;2.53;;;2.33;;
76801;SDS011;66403;50.832;10.950;2023-04-25T02:58:57;4.50;;;2.22;;
76801;SDS011;66403;50.832;10.950;2023-04-25T03:03:57;4.47;;;2.28;;
76801;SDS011;66403;50.832;10.950;2023-04-25T03:08:58;4.15;;;3.17;;
76801;SDS011;66403;50.832;10.950;2023-04-25T03:13:59;4.80;;;2.55;;
76801;SDS011;66403;50.832;10.950;2023-04-25T03:19:01;5.10;;;2.50;;
76801;SDS011;66403;50.832;10.950;2023-04-25T03:24:03;5.20;;;2.78;;
76801;SDS011;66403;50.832;10.950;2023-04-25T03:29:04;3.55;;;2.50;;
76801;SDS011;66403;50.832;10.950;2023-04-25T03:34:05;6.30;;;3.80;;
76801;SDS011;66403;50.832;10.950;2023-04-25T03:39:05;7.25;;;3.50;;
76801;SDS011;66403;50.832;10.950;2023-04-25T03:44:07;11.90;;;5.25;;
76801;SDS011;66403;50.832;10.950;2023-04-25T03:49:07;9.60;;;4.35;;
76801;SDS011;66403;50.832;10.950;2023-04-25T03:54:26;10.23;;;4.65;;
76801;SDS011;66403;50.832;10.950;2023-04-25T03:59:47;4.95;;;3.25;;
76801;SDS011;66403;50.832;10.950;2023-04-25T04:04:49;10.32;;;4.53;;
76801;SDS011;66403;50.832;10.950;2023-04-25T04:09:50;7.65;;;4.70;;
76801;SDS011;66403;50.832;10.950;2023-04-25T04:14:59;8.45;;;4.22;;
76801;SDS011;66403;50.832;10.950;2023-04-25T04:20:00;7.28;;;4.25;;
76801;SDS011;66403;50.832;10.950;2023-04-25T04:25:04;8.25;;;3.78;;
76801;SDS011;66403;50.832;10.950;2023-04-25T04:30:35;7.10;;;3.72;;
76801;SDS011;66403;50.832;10.950;2023-04-25T04:35:40;11.25;;;5.60;;
76801;SDS011;66403;50.832;10.950;2023-04-25T04:40:42;5.25;;;2.78;;
76801;SDS011;66403;50.832;10.950;2023-04-25T04:45:51;4.45;;;3.15;;
76801;SDS011;66403;50.832;10.950;2023-04-25T04:51:12;4.25;;;2.90;;
76801;SDS011;66403;50.832;10.950;2023-04-25T04:56:31;3.65;;;2.63;;
76801;SDS011;66403;50.832;10.950;2023-04-25T05:01:47;5.47;;;3.53;;
76801;SDS011;66403;50.832;10.950;2023-04-25T05:07:06;5.50;;;3.10;;
76801;SDS011;66403;50.832;10.950;2023-04-25T05:12:33;8.25;;;4.13;;
76801;SDS011;66403;50.832;10.950;2023-04-25T05:17:56;7.70;;;3.40;;
76801;SDS011;66403;50.832;10.950;2023-04-25T05:23:15;5.90;;;3.63;;
76801;SDS011;66403;50.832;10.950;2023-04-25T05:28:16;6.85;;;3.10;;
76801;SDS011;66403;50.832;10.950;2023-04-25T05:33:28;8.38;;;3.63;;
76801;SDS011;66403;50.832;10.950;2023-04-25T05:38:29;7.43;;;3.95;;
76801;SDS011;66403;50.832;10.950;2023-04-25T05:43:48;4.05;;;2.30;;
76801;SDS011;66403;50.832;10.950;2023-04-25T05:48:59;4.15;;;2.47;;
76801;SDS011;66403;50.832;10.950;2023-04-25T05:54:15;5.32;;;2.83;;
76801;SDS011;66403;50.832;10.950;2023-04-25T05:59:15;4.57;;;2.05;;
76801;SDS011;66403;50.832;10.950;2023-04-25T06:04:16;4.15;;;2.15;;
76801;SDS011;66403;50.832;10.950;2023-04-25T06:09:17;3.38;;;1.73;;
76801;SDS011;66403;50.832;10.950;2023-04-25T06:14:17;3.92;;;1.98;;
76801;SDS011;66403;50.832;10.950;2023-04-25T06:19:22;5.35;;;1.63;;
76801;SDS011;66403;50.832;10.950;2023-04-25T06:24:22;4.35;;;1.88;;
76801;SDS011;66403;50.832;10.950;2023-04-25T06:29:24;2.70;;;1.65;;
76801;SDS011;66403;50.832;10.950;2023-04-25T06:34:24;4.47;;;2.17;;
76801;SDS011;66403;50.832;10.950;2023-04-25T06:39:25;7.93;;;2.28;;
76801;SDS011;66403;50.832;10.950;2023-04-25T06:44:25;3.10;;;1.52;;
76801;SDS011;66403;50.832;10.950;2023-04-25T06:49:27;4.50;;;1.75;;
76801;SDS011;66403;50.832;10.950;2023-04-25T06:54:28;2.95;;;1.73;;
76801;SDS011;66403;50.832;10.950;2023-04-25T06:59:36;1.23;;;1.05;;
76801;SDS011;66403;50.832;10.950;2023-04-25T07:04:37;2.22;;;1.42;;
76801;SDS011;66403;50.832;10.950;2023-04-25T07:09:38;3.03;;;1.40;;
76801;SDS011;66403;50.832;10.950;2023-04-25T07:14:39;3.58;;;2.35;;
76801;SDS011;66403;50.832;10.950;2023-04-25T07:19:40;2.47;;;1.30;;
76801;SDS011;66403;50.832;10.950;2023-04-25T07:24:42;1.60;;;1.13;;
76801;SDS011;66403;50.832;10.950;2023-04-25T07:29:47;4.13;;;2.05;;
76801;SDS011;66403;50.832;10.950;2023-04-25T07:34:48;4.53;;;1.75;;
76801;SDS011;66403;50.832;10.950;2023-04-25T07:39:48;6.25;;;2.53;;
76801;SDS011;66403;50.832;10.950;2023-04-25T07:44:49;4.65;;;1.55;;
76801;SDS011;66403;50.832;10.950;2023-04-25T07:49:51;4.57;;;1.83;;
76801;SDS011;66403;50.832;10.950;2023-04-25T07:54:52;3.50;;;1.98;;
76801;SDS011;66403;50.832;10.950;2023-04-25T07:59:59;1.98;;;1.42;;
76801;SDS011;66403;50.832;10.950;2023-04-25T08:05:02;4.10;;;2.03;;
76801;SDS011;66403;50.832;10.950;2023-04-25T08:10:02;2.88;;;1.73;;
76801;SDS011;66403;50.832;10.950;2023-04-25T08:15:08;2.30;;;1.63;;
76801;SDS011;66403;50.832;10.950;2023-04-25T08:20:12;4.78;;;1.80;;
76801;SDS011;66403;50.832;10.950;2023-04-25T08:25:13;2.05;;;1.65;;
76801;SDS011;66403;50.832;10.950;2023-04-25T08:30:14;2.78;;;1.67;;
76801;SDS011;66403;50.832;10.950;2023-04-25T08:35:16;4.38;;;2.08;;
76801;SDS011;66403;50.832;10.950;2023-04-25T08:40:17;4.93;;;2.13;;
76801;SDS011;66403;50.832;10.950;2023-04-25T08:45:31;13.82;;;5.38;;
76801;SDS011;66403;50.832;10.950;2023-04-25T08:50:32;5.25;;;2.47;;
76801;SDS011;66403;50.832;10.950;2023-04-25T08:55:33;3.95;;;2.00;;
76801;SDS011;66403;50.832;10.950;2023-04-25T09:00:34;3.78;;;1.98;;
76801;SDS011;66403;50.832;10.950;2023-04-25T09:05:35;2.22;;;1.48;;
76801;SDS011;66403;50.832;10.950;2023-04-25T09:10:38;3.45;;;2.30;;
76801;SDS011;66403;50.832;10.950;2023-04-25T09:15:53;2.25;;;1.45;;
76801;SDS011;66403;50.832;10.950;2023-04-25T09:21:10;4.07;;;2.10;;
76801;SDS011;66403;50.832;10.950;2023-04-25T09:26:13;2.78;;;1.73;;
76801;SDS011;66403;50.832;10.950;2023-04-25T09:31:22;3.20;;;2.15;;
76801;SDS011;66403;50.832;10.950;2023-04-25T09:36:26;4.47;;;3.22;;
76801;SDS011;66403;50.832;10.950;2023-04-25T09:41:37;3.25;;;1.67;;
76801;SDS011;66403;50.832;10.950;2023-04-25T09:46:38;2.10;;;1.58;;
76801;SDS011;66403;50.832;10.950;2023-04-25T09:51:47;2.20;;;1.35;;
76801;SDS011;66403;50.832;10.950;2023-04-25T09:56:55;3.00;;;1.60;;
76801;SDS011;66403;50.832;10.950;2023-04-25T10:01:56;3.10;;;1.88;;
76801;SDS011;66403;50.832;10.950;2023-04-25T10:07:05;1.30;;;1.15;;
76801;SDS011;66403;50.832;10.950;2023-04-25T10:12:06;4.72;;;2.80;;
76801;SDS011;66403;50.832;10.950;2023-04-25T10:17:08;3.60;;;2.13;;
76801;SDS011;66403;50.832;10.950;2023-04-25T10:22:12;2.65;;;1.80;;
76801;SDS011;66403;50.832;10.950;2023-04-25T10:27:16;2.55;;;1.35;;
76801;SDS011;66403;50.832;10.950;2023-04-25T10:32:18;6.38;;;2.42;;
76801;SDS011;66403;50.832;10.950;2023-04-25T10:37:18;6.32;;;1.65;;
76801;SDS011;66403;50.832;10.950;2023-04-25T10:42:20;6.07;;;1.80;;
76801;SDS011;66403;50.832;10.950;2023-04-25T10:47:20;5.70;;;1.85;;
76801;SDS011;66403;50.832;10.950;2023-04-25T10:52:34;4.03;;;1.55;;
76801;SDS011;66403;50.832;10.950;2023-04-25T10:57:36;2.72;;;1.67;;
76801;SDS011;66403;50.832;10.950;2023-04-25T11:02:55;2.28;;;1.25;;
76801;SDS011;66403;50.832;10.950;2023-04-25T11:07:58;3.22;;;1.67;;
76801;SDS011;66403;50.832;10.950;2023-04-25T11:12:59;6.70;;;2.00;;
76801;SDS011;66403;50.832;10.950;2023-04-25T11:18:00;6.67;;;2.00;;
76801;SDS011;66403;50.832;10.950;2023-04-25T11:23:00;2.87;;;1.93;;
76801;SDS011;66403;50.832;10.950;2023-04-25T11:28:00;2.53;;;1.38;;
76801;SDS011;66403;50.832;10.950;2023-04-25T11:33:01;2.60;;;1.20;;
76801;SDS011;66403;50.832;10.950;2023-04-25T11:38:03;7.00;;;2.17;;
76801;SDS011;66403;50.832;10.950;2023-04-25T11:43:04;6.72;;;2.00;;
76801;SDS011;66403;50.832;10.950;2023-04-25T11:48:04;5.07;;;1.90;;
76801;SDS011;66403;50.832;10.950;2023-04-25T11:53:05;2.67;;;1.88;;
76801;SDS011;66403;50.832;10.950;2023-04-25T11:58:08;6.57;;;2.67;;
76801;SDS011;66403;50.832;10.950;2023-04-25T12:03:08;4.63;;;2.78;;
76801;SDS011;66403;50.832;10.950;2023-04-25T12:08:10;3.20;;;1.42;;
76801;SDS011;66403;50.832;10.950;2023-04-25T12:13:21;3.45;;;1.70;;
76801;SDS011;66403;50.832;10.950;2023-04-25T12:18:25;9.63;;;5.65;;
76801;SDS011;66403;50.832;10.950;2023-04-25T12:23:27;4.75;;;1.67;;
76801;SDS011;66403;50.832;10.950;2023-04-25T12:28:31;5.13;;;1.83;;
76801;SDS011;66403;50.832;10.950;2023-04-25T12:33:34;6.53;;;2.28;;
76801;SDS011;66403;50.832;10.950;2023-04-25T12:38:38;5.13;;;2.00;;
76801;SDS011;66403;50.832;10.950;2023-04-25T12:43:40;4.68;;;1.95;;
76801;SDS011;66403;50.832;10.950;2023-04-25T12:48:40;3.80;;;1.77;;
76801;SDS011;66403;50.832;10.950;2023-04-25T12:53:42;4.68;;;2.30;;
76801;SDS011;66403;50.832;10.950;2023-04-25T12:58:42;4.13;;;1.98;;
76801;SDS011;66403;50.832;10.950;2023-04-25T13:03:44;7.28;;;1.92;;
76801;SDS011;66403;50.832;10.950;2023-04-25T13:08:44;7.13;;;2.05;;
76801;SDS011;66403;50.832;10.950;2023-04-25T13:13:45;5.25;;;1.48;;
76801;SDS011;66403;50.832;10.950;2023-04-25T13:18:45;7.80;;;1.90;;
76801;SDS011;66403;50.832;10.950;2023-04-25T13:23:46;5.38;;;2.20;;
76801;SDS011;66403;50.832;10.950;2023-04-25T13:28:46;4.15;;;1.77;;
76801;SDS011;66403;50.832;10.950;2023-04-25T13:33:47;2.53;;;1.27;;
76801;SDS011;66403;50.832;10.950;2023-04-25T13:38:47;8.40;;;2.03;;
76801;SDS011;66403;50.832;10.950;2023-04-25T13:43:49;4.18;;;1.25;;
76801;SDS011;66403;50.832;10.950;2023-04-25T13:48:49;4.20;;;1.33;;
76801;SDS011;66403;50.832;10.950;2023-04-25T13:53:50;4.50;;;1.10;;
76801;SDS011;66403;50.832;10.950;2023-04-25T13:58:50;5.63;;;2.63;;
76801;SDS011;66403;50.832;10.950;2023-04-25T14:03:51;8.10;;;1.42;;
76801;SDS011;66403;50.832;10.950;2023-04-25T14:08:52;4.07;;;1.20;;
76801;SDS011;66403;50.832;10.950;2023-04-25T14:13:53;5.13;;;2.53;;
76801;SDS011;66403;50.832;10.950;2023-04-25T14:18:53;4.60;;;1.45;;
76801;SDS011;66403;50.832;10.950;2023-04-25T14:23:54;6.25;;;1.80;;
76801;SDS011;66403;50.832;10.950;2023-04-25T14:28:55;2.78;;;1.70;;
76801;SDS011;66403;50.832;10.950;2023-04-25T14:33:55;2.13;;;1.27;;
76801;SDS011;66403;50.832;10.950;2023-04-25T14:38:56;2.17;;;1.00;;
76801;SDS011;66403;50.832;10.950;2023-04-25T14:43:56;1.95;;;1.05;;
76801;SDS011;66403;50.832;10.950;2023-04-25T14:48:57;3.97;;;1.23;;
76801;SDS011;66403;50.832;10.950;2023-04-25T14:53:57;2.23;;;1.30;;
76801;SDS011;66403;50.832;10.950;2023-04-25T14:58:58;3.27;;;1.00;;
76801;SDS011;66403;50.832;10.950;2023-04-25T15:03:58;3.20;;;1.50;;
76801;SDS011;66403;50.832;10.950;2023-04-25T15:08:58;5.77;;;1.40;;
76801;SDS011;66403;50.832;10.950;2023-04-25T15:13:59;3.97;;;1.70;;
76801;SDS011;66403;50.832;10.950;2023-04-25T15:18:59;1.60;;;1.10;;
76801;SDS011;66403;50.832;10.950;2023-04-25T15:24:03;5.10;;;1.13;;
76801;SDS011;66403;50.832;10.950;2023-04-25T15:29:04;2.83;;;1.90;;
76801;SDS011;66403;50.832;10.950;2023-04-25T15:34:05;6.22;;;1.73;;
76801;SDS011;66403;50.832;10.950;2023-04-25T15:39:06;5.93;;;1.80;;
76801;SDS011;66403;50.832;10.950;2023-04-25T15:44:06;5.95;;;1.67;;
76801;SDS011;66403;50.832;10.950;2023-04-25T15:49:07;10.65;;;4.35;;
76801;SDS011;66403;50.832;10.950;2023-04-25T15:54:08;2.97;;;1.65;;
76801;SDS011;66403;50.832;10.950;2023-04-25T15:59:09;3.50;;;1.90;;
76801;SDS011;66403;50.832;10.950;2023-04-25T16:04:10;3.90;;;1.45;;
76801;SDS011;66403;50.832;10.950;2023-04-25T16:09:10;2.83;;;1.60;;
76801;SDS011;66403;50.832;10.950;2023-04-25T16:14:11;4.78;;;1.40;;
76801;SDS011;66403;50.832;10.950;2023-04-25T16:19:11;7.90;;;2.67;;
76801;SDS011;66403;50.832;10.950;2023-04-25T16:24:12;5.13;;;2.80;;
76801;SDS011;66403;50.832;10.950;2023-04-25T16:29:12;4.30;;;1.40;;
76801;SDS011;66403;50.832;10.950;2023-04-25T16:34:14;2.03;;;1.10;;
76801;SDS011;66403;50.832;10.950;2023-04-25T16:39:15;2.38;;;1.25;;
76801;SDS011;66403;50.832;10.950;2023-04-25T16:44:16;7.43;;;1.40;;
76801;SDS011;66403;50.832;10.950;2023-04-25T16:49:17;8.35;;;1.73;;
76801;SDS011;66403;50.832;10.950;2023-04-25T16:54:20;3.00;;;1.40;;
76801;SDS011;66403;50.832;10.950;2023-04-25T16:59:21;3.17;;;1.73;;
76801;SDS011;66403;50.832;10.950;2023-04-25T17:04:21;4.20;;;1.10;;
76801;SDS011;66403;50.832;10.950;2023-04-25T17:09:22;6.30;;;2.00;;
76801;SDS011;66403;50.832;10.950;2023-04-25T17:14:22;3.95;;;1.35;;
76801;SDS011;66403;50.832;10.950;2023-04-25T17:19:22;3.92;;;1.42;;
76801;SDS011;66403;50.832;10.950;2023-04-25T17:24:23;2.33;;;1.10;;
76801;SDS011;66403;50.832;10.950;2023-04-25T17:29:23;3.45;;;1.65;;
76801;SDS011;66403;50.832;10.950;2023-04-25T17:34:26;5.05;;;1.92;;
76801;SDS011;66403;50.832;10.950;2023-04-25T17:39:27;4.18;;;1.55;;
76801;SDS011;66403;50.832;10.950;2023-04-25T17:44:28;3.15;;;1.33;;
76801;SDS011;66403;50.832;10.950;2023-04-25T17:49:31;2.65;;;1.15;;
76801;SDS011;66403;50.832;10.950;2023-04-25T17:54:32;2.30;;;1.33;;
76801;SDS011;66403;50.832;10.950;2023-04-25T17:59:32;2.20;;;1.20;;
76801;SDS011;66403;50.832;10.950;2023-04-25T18:04:33;3.15;;;1.35;;
76801;SDS011;66403;50.832;10.950;2023-04-25T18:09:34;1.90;;;1.65;;
76801;SDS011;66403;50.832;10.950;2023-04-25T18:14:35;1.80;;;1.00;;
76801;SDS011;66403;50.832;10.950;2023-04-25T18:19:35;5.00;;;1.40;;
76801;SDS011;66403;50.832;10.950;2023-04-25T18:24:36;1.48;;;0.98;;
76801;SDS011;66403;50.832;10.950;2023-04-25T18:29:36;3.35;;;1.27;;
76801;SDS011;66403;50.832;10.950;2023-04-25T18:34:37;5.28;;;1.08;;
76801;SDS011;66403;50.832;10.950;2023-04-25T18:39:40;3.25;;;1.23;;
76801;SDS011;66403;50.832;10.950;2023-04-25T18:44:40;2.65;;;1.90;;
76801;SDS011;66403;50.832;10.950;2023-04-25T18:49:41;2.55;;;1.55;;
76801;SDS011;66403;50.832;10.950;2023-04-25T18:54:42;2.53;;;1.50;;
76801;SDS011;66403;50.832;10.950;2023-04-25T18:59:43;2.38;;;1.42;;
76801;SDS011;66403;50.832;10.950;2023-04-25T19:04:44;2.95;;;1.35;;
76801;SDS011;66403;50.832;10.950;2023-04-25T19:09:45;6.03;;;2.67;;
76801;SDS011;66403;50.832;10.950;2023-04-25T19:14:46;4.18;;;1.17;;
76801;SDS011;66403;50.832;10.950;2023-04-25T19:19:46;2.80;;;2.03;;
76801;SDS011;66403;50.832;10.950;2023-04-25T19:24:47;4.13;;;2.53;;
76801;SDS011;66403;50.832;10.950;2023-04-25T19:29:47;4.32;;;1.77;;
76801;SDS011;66403;50.832;10.950;2023-04-25T19:34:48;6.75;;;2.10;;
76801;SDS011;66403;50.832;10.950;2023-04-25T19:39:48;4.90;;;2.22;;
76801;SDS011;66403;50.832;10.950;2023-04-25T19:44:50;2.53;;;1.52;;
76801;SDS011;66403;50.832;10.950;2023-04-25T19:49:50;2.88;;;1.67;;
76801;SDS011;66403;50.832;10.950;2023-04-25T19:54:51;4.50;;;2.13;;
76801;SDS011;66403;50.832;10.950;2023-04-25T19:59:52;3.58;;;1.85;;
76801;SDS011;66403;50.832;10.950;2023-04-25T20:04:53;4.40;;;2.05;;
76801;SDS011;66403;50.832;10.950;2023-04-25T20:09:53;4.00;;;2.50;;
76801;SDS011;66403;50.832;10.950;2023-04-25T20:14:54;4.85;;;2.53;;
76801;SDS011;66403;50.832;10.950;2023-04-25T20:19:55;3.20;;;2.00;;
76801;SDS011;66403;50.832;10.950;2023-04-25T20:24:56;4.47;;;2.33;;
76801;SDS011;66403;50.832;10.950;2023-04-25T20:29:56;3.10;;;1.17;;
76801;SDS011;66403;50.832;10.950;2023-04-25T20:34:57;3.88;;;1.75;;
76801;SDS011;66403;50.832;10.950;2023-04-25T20:39:58;4.07;;;1.35;;
76801;SDS011;66403;50.832;10.950;2023-04-25T20:44:59;1.63;;;1.10;;
76801;SDS011;66403;50.832;10.950;2023-04-25T20:49:59;4.00;;;1.13;;
76801;SDS011;66403;50.832;10.950;2023-04-25T20:55:03;2.83;;;1.13;;
76801;SDS011;66403;50.832;10.950;2023-04-25T21:00:04;0.93;;;0.80;;
76801;SDS011;66403;50.832;10.950;2023-04-25T21:05:25;1.92;;;1.00;;
76801;SDS011;66403;50.832;10.950;2023-04-25T21:10:25;2.75;;;1.20;;
76801;SDS011;66403;50.832;10.950;2023-04-25T21:15:26;2.83;;;0.90;;
76801;SDS011;66403;50.832;10.950;2023-04-25T21:20:27;1.52;;;0.95;;
76801;SDS011;66403;50.832;10.950;2023-04-25T21:25:27;4.28;;;1.52;;
76801;SDS011;66403;50.832;10.950;2023-04-25T21:30:29;4.78;;;1.10;;
76801;SDS011;66403;50.832;10.950;2023-04-25T21:35:30;2.95;;;1.30;;
76801;SDS011;66403;50.832;10.950;2023-04-25T21:40:30;4.75;;;1.95;;
76801;SDS011;66403;50.832;10.950;2023-04-25T21:45:31;2.00;;;1.05;;
76801;SDS011;66403;50.832;10.950;2023-04-25T21:50:32;4.60;;;2.08;;
76801;SDS011;66403;50.832;10.950;2023-04-25T21:55:32;5.00;;;1.52;;
76801;SDS011;66403;50.832;10.950;2023-04-25T22:00:33;1.42;;;1.20;;
76801;SDS011;66403;50.832;10.950;2023-04-25T22:05:33;3.15;;;1.85;;
76801;SDS011;66403;50.832;10.950;2023-04-25T22:10:35;1.85;;;1.35;;
76801;SDS011;66403;50.832;10.950;2023-04-25T22:15:37;3.60;;;1.52;;
76801;SDS011;66403;50.832;10.950;2023-04-25T22:20:37;3.28;;;1.20;;
76801;SDS011;66403;50.832;10.950;2023-04-25T22:25:39;2.45;;;1.70;;
76801;SDS011;66403;50.832;10.950;2023-04-25T22:30:39;1.10;;;0.75;;
76801;SDS011;66403;50.832;10.950;2023-04-25T22:35:39;2.30;;;1.17;;
76801;SDS011;66403;50.832;10.950;2023-04-25T22:40:40;1.23;;;1.02;;
76801;SDS011;66403;50.832;10.950;2023-04-25T22:45:40;1.30;;;0.90;;
76801;SDS011;66403;50.832;10.950;2023-04-25T22:50:41;3.22;;;0.98;;
76801;SDS011;66403;50.832;10.950;2023-04-25T22:55:42;3.25;;;1.30;;
76801;SDS011;66403;50.832;10.950;2023-04-25T23:00:43;1.77;;;1.10;;
76801;SDS011;66403;50.832;10.950;2023-04-25T23:05:44;1.58;;;1.15;;
76801;SDS011;66403;50.832;10.950;2023-04-25T23:10:45;1.23;;;1.02;;
76801;SDS011;66403;50.832;10.950;2023-04-25T23:15:46;2.35;;;1.05;;
76801;SDS011;66403;50.832;10.950;2023-04-25T23:20:46;2.60;;;1.23;;
76801;SDS011;66403;50.832;10.950;2023-04-25T23:25:47;4.95;;;2.30;;
76801;SDS011;66403;50.832;10.950;2023-04-25T23:30:47;5.60;;;2.20;;
76801;SDS011;66403;50.832;10.950;2023-04-25T23:35:48;3.28;;;2.20;;
76801;SDS011;66403;50.832;10.950;2023-04-25T23:40:48;17.23;;;4.80;;
76801;SDS011;66403;50.832;10.950;2023-04-25T23:45:49;16.63;;;5.97;;
76801;SDS011;66403;50.832;10.950;2023-04-25T23:50:49;21.98;;;7.63;;
76801;SDS011;66403;50.832;10.950;2023-04-25T23:55:50;11.02;;;5.82;;
